createdAt,value
2018-05-02T00:00:14.639Z,56.00
2018-05-02T00:02:42.851Z,55.70
2018-05-02T00:05:10.297Z,56.20
2018-05-02T00:07:37.747Z,56.10
2018-05-02T00:10:05.192Z,56.20
2018-05-02T00:12:33.408Z,55.20
2018-05-02T00:15:00.847Z,55.20
2018-05-02T00:17:28.292Z,55.70
2018-05-02T00:19:55.739Z,54.80
2018-05-02T00:22:23.188Z,54.80
2018-05-02T00:24:51.400Z,54.30
2018-05-02T00:27:18.848Z,54.30
2018-05-02T00:29:46.291Z,55.30
2018-05-02T00:32:13.743Z,56.20
2018-05-02T00:34:41.187Z,56.80
2018-05-02T00:37:09.409Z,56.90
2018-05-02T00:39:36.849Z,56.90
2018-05-02T00:42:04.318Z,56.60
2018-05-02T00:44:31.763Z,56.90
2018-05-02T00:46:59.220Z,56.90
2018-05-02T00:49:26.663Z,57.10
2018-05-02T00:51:54.116Z,57.50
2018-05-02T00:54:21.557Z,57.40
2018-05-02T00:56:49.763Z,57.10
2018-05-02T00:59:17.203Z,57.10
2018-05-02T01:01:44.665Z,57.10
2018-05-02T01:04:12.104Z,57.50
2018-05-02T01:06:40.331Z,57.00
2018-05-02T01:09:07.784Z,57.00
2018-05-02T01:14:04.322Z,56.30
2018-05-02T01:16:31.766Z,56.10
2018-05-02T01:18:59.224Z,55.80
2018-05-02T01:21:26.743Z,55.60
2018-05-02T01:23:54.114Z,55.70
2018-05-02T01:26:22.325Z,56.70
2018-05-02T01:28:49.775Z,56.60
2018-05-02T01:31:17.220Z,55.90
2018-05-02T01:33:44.668Z,56.00
2018-05-02T01:36:12.111Z,54.90
2018-05-02T01:38:40.344Z,54.90
2018-05-02T01:41:07.787Z,54.90
2018-05-02T01:43:35.236Z,55.30
2018-05-02T01:46:02.670Z,55.70
2018-05-02T01:48:30.124Z,56.10
2018-05-02T01:50:57.578Z,56.00
2018-05-02T01:53:25.795Z,56.70
2018-05-02T01:55:53.235Z,56.70
2018-05-02T01:58:20.688Z,56.60
2018-05-02T02:00:48.127Z,56.30
2018-05-02T02:03:15.576Z,56.40
2018-05-02T02:05:43.797Z,56.20
2018-05-02T02:08:11.246Z,56.20
2018-05-02T02:10:38.694Z,56.10
2018-05-02T02:13:06.151Z,56.60
2018-05-02T02:15:33.588Z,56.70
2018-05-02T02:18:01.032Z,56.60
2018-05-02T02:20:29.240Z,56.80
2018-05-02T02:22:56.694Z,56.70
2018-05-02T02:25:24.136Z,56.70
2018-05-02T02:27:51.589Z,56.60
2018-05-02T02:30:19.027Z,56.60
2018-05-02T02:32:47.238Z,56.80
2018-05-02T02:35:14.693Z,57.40
2018-05-02T02:37:42.903Z,57.10
2018-05-02T02:40:10.343Z,58.00
2018-05-02T02:42:37.791Z,57.10
2018-05-02T02:45:05.248Z,57.00
2018-05-02T02:47:32.699Z,56.80
2018-05-02T02:50:00.144Z,57.10
2018-05-02T02:52:27.586Z,57.30
2018-05-02T02:54:55.031Z,57.20
2018-05-02T02:57:23.251Z,57.00
2018-05-02T02:59:50.699Z,57.00
2018-05-02T03:02:18.160Z,57.10
2018-05-02T03:04:45.601Z,56.90
2018-05-02T03:07:13.043Z,56.80
2018-05-02T03:09:40.496Z,56.60
2018-05-02T03:12:08.720Z,56.80
2018-05-02T03:14:36.157Z,56.80
2018-05-02T03:17:03.599Z,56.90
2018-05-02T03:19:31.052Z,57.20
2018-05-02T03:21:58.498Z,57.80
2018-05-02T03:24:26.716Z,57.70
2018-05-02T03:26:54.159Z,57.70
2018-05-02T03:29:21.612Z,57.60
2018-05-02T03:31:49.053Z,57.80
2018-05-02T03:34:16.500Z,57.90
2018-05-02T03:36:44.709Z,59.10
2018-05-02T03:39:12.159Z,59.10
2018-05-02T03:41:39.591Z,59.30
2018-05-02T03:44:07.031Z,59.40
2018-05-02T03:46:35.231Z,59.90
2018-05-02T03:49:02.667Z,59.90
2018-05-02T03:51:30.874Z,61.30
2018-05-02T03:53:58.327Z,61.20
2018-05-02T03:56:25.763Z,61.50
2018-05-02T03:58:53.978Z,62.30
2018-05-02T04:01:33.400Z,61.70
2018-05-02T04:04:12.852Z,62.30
2018-05-02T04:06:52.231Z,62.00
2018-05-02T04:09:20.440Z,62.40
2018-05-02T04:11:47.875Z,62.30
2018-05-02T04:14:16.079Z,61.70
2018-05-02T04:16:43.518Z,61.70
2018-05-02T04:19:10.951Z,61.90
2018-05-02T04:21:39.151Z,62.20
2018-05-02T04:24:06.595Z,62.20
2018-05-02T04:26:34.797Z,61.50
2018-05-02T04:29:02.234Z,61.60
2018-05-02T04:31:29.672Z,61.90
2018-05-02T04:33:57.111Z,61.40
2018-05-02T04:36:24.551Z,61.80
2018-05-02T04:38:51.990Z,61.30
2018-05-02T04:41:20.251Z,60.80
2018-05-02T04:43:47.692Z,60.40
2018-05-02T04:46:15.132Z,59.80
2018-05-02T04:48:43.347Z,60.60
2018-05-02T04:51:10.791Z,60.50
2018-05-02T04:53:38.241Z,60.00
2018-05-02T04:56:05.679Z,60.20
2018-05-02T04:58:33.915Z,61.10
2018-05-02T05:01:01.355Z,60.90
2018-05-02T05:03:28.800Z,60.50
2018-05-02T05:05:56.259Z,59.90
2018-05-02T05:08:23.695Z,59.10
2018-05-02T05:10:51.149Z,58.90
2018-05-02T05:13:19.348Z,57.60
2018-05-02T05:15:46.790Z,57.60
2018-05-02T05:18:14.231Z,56.80
2018-05-02T05:20:42.451Z,55.80
2018-05-02T05:23:09.890Z,55.80
2018-05-02T05:25:37.337Z,55.90
2018-05-02T05:28:04.775Z,55.40
2018-05-02T05:30:32.990Z,54.60
2018-05-02T05:33:00.433Z,54.40
2018-05-02T05:35:27.879Z,54.30
2018-05-02T05:37:55.324Z,54.40
2018-05-02T05:40:22.767Z,54.60
2018-05-02T05:42:50.977Z,54.60
2018-05-02T05:45:18.429Z,54.60
2018-05-02T05:47:46.634Z,53.40
2018-05-02T05:50:14.119Z,53.40
2018-05-02T05:52:41.567Z,53.40
2018-05-02T05:55:09.014Z,53.80
2018-05-02T05:57:36.455Z,53.90
2018-05-02T06:00:03.908Z,52.80
2018-05-02T06:02:31.352Z,52.80
2018-05-02T06:04:58.801Z,52.80
2018-05-02T06:07:26.255Z,52.50
2018-05-02T06:09:53.711Z,52.90
2018-05-02T06:12:21.147Z,52.70
2018-05-02T06:14:49.363Z,51.60
2018-05-02T06:17:16.799Z,51.60
2018-05-02T06:19:44.256Z,50.90
2018-05-02T06:22:11.703Z,52.10
2018-05-02T06:24:39.156Z,52.70
2018-05-02T06:27:07.364Z,51.00
2018-05-02T06:29:34.809Z,51.00
2018-05-02T06:32:02.255Z,50.90
2018-05-02T06:34:29.698Z,50.30
2018-05-02T06:36:57.144Z,50.70
2018-05-02T06:39:25.359Z,49.50
2018-05-02T06:41:52.795Z,49.40
2018-05-02T06:44:20.251Z,49.50
2018-05-02T06:46:47.687Z,51.20
2018-05-02T06:49:16.659Z,51.00
2018-05-02T06:51:44.804Z,49.40
2018-05-02T06:54:12.252Z,49.20
2018-05-02T06:56:39.703Z,49.70
2018-05-02T06:59:07.154Z,48.90
2018-05-02T07:01:34.596Z,49.60
2018-05-02T07:04:02.039Z,49.10
2018-05-02T07:06:30.255Z,49.50
2018-05-02T07:08:57.691Z,49.50
2018-05-02T07:11:25.131Z,50.10
2018-05-02T07:13:53.338Z,49.00
2018-05-02T07:16:20.786Z,48.90
2018-05-02T07:18:48.224Z,50.30
2018-05-02T07:21:16.811Z,48.10
2018-05-02T07:23:45.057Z,48.80
2018-05-02T07:26:12.475Z,48.80
2018-05-02T07:28:39.920Z,48.40
2018-05-02T07:31:07.439Z,46.30
2018-05-02T07:33:35.607Z,46.40
2018-05-02T07:36:03.067Z,46.40
2018-05-02T07:38:30.527Z,47.10
2018-05-02T07:40:58.941Z,46.80
2018-05-02T07:43:26.410Z,47.80
2018-05-02T07:45:53.865Z,48.30
2018-05-02T07:48:21.354Z,48.10
2018-05-02T07:50:48.815Z,49.00
2018-05-02T07:53:16.278Z,49.80
2018-05-02T07:55:43.742Z,49.20
2018-05-02T07:58:11.188Z,49.60
2018-05-02T08:00:38.667Z,48.80
2018-05-02T08:03:06.094Z,49.10
2018-05-02T08:05:33.545Z,48.60
2018-05-02T08:08:00.993Z,48.10
2018-05-02T08:10:28.461Z,49.00
2018-05-02T08:12:55.908Z,49.30
2018-05-02T08:15:23.367Z,49.90
2018-05-02T08:17:50.814Z,49.80
2018-05-02T08:20:18.273Z,50.20
2018-05-02T08:22:45.718Z,50.10
2018-05-02T08:25:13.182Z,50.70
2018-05-02T08:27:40.733Z,50.90
2018-05-02T08:30:08.188Z,52.40
2018-05-02T08:32:35.636Z,52.40
2018-05-02T08:35:03.093Z,51.20
2018-05-02T08:37:30.534Z,49.80
2018-05-02T08:39:58.013Z,49.60
2018-05-02T08:42:28.167Z,49.90
2018-05-02T08:44:55.631Z,48.00
2018-05-02T08:47:23.079Z,48.80
2018-05-02T08:49:50.560Z,47.10
2018-05-02T08:52:18.976Z,47.40
2018-05-02T08:54:46.443Z,47.90
2018-05-02T08:57:13.902Z,44.90
2018-05-02T08:59:41.340Z,42.80
2018-05-02T09:02:08.812Z,40.90
2018-05-02T09:04:44.272Z,39.40
2018-05-02T09:07:11.807Z,40.50
2018-05-02T09:09:39.251Z,42.90
2018-05-02T09:12:06.731Z,43.40
2018-05-02T09:14:34.219Z,43.10
2018-05-02T09:17:01.693Z,44.10
2018-05-02T09:19:29.152Z,44.10
2018-05-02T09:21:56.617Z,42.80
2018-05-02T09:24:24.850Z,42.20
2018-05-02T09:26:52.332Z,42.20
2018-05-02T09:29:19.797Z,43.50
2018-05-02T09:31:47.261Z,42.40
2018-05-02T09:34:14.782Z,41.20
2018-05-02T09:36:42.272Z,39.80
2018-05-02T09:39:09.737Z,40.80
2018-05-02T09:41:37.966Z,40.10
2018-05-02T09:44:05.499Z,40.00
2018-05-02T09:46:32.907Z,38.20
2018-05-02T09:49:00.348Z,38.10
2018-05-02T09:51:27.823Z,38.60
2018-05-02T09:53:55.276Z,37.10
2018-05-02T09:56:22.770Z,37.10
2018-05-02T09:58:50.301Z,37.20
2018-05-02T10:01:17.765Z,36.80
2018-05-02T10:03:46.009Z,35.80
2018-05-02T10:06:13.499Z,35.80
2018-05-02T10:08:40.936Z,37.00
2018-05-02T10:11:08.399Z,36.70
2018-05-02T10:13:35.849Z,36.70
2018-05-02T10:16:03.304Z,37.90
2018-05-02T10:18:30.809Z,38.60
2018-05-02T10:20:58.200Z,38.80
2018-05-02T10:23:25.653Z,39.50
2018-05-02T10:25:53.116Z,42.50
2018-05-02T10:28:20.560Z,42.60
2018-05-02T10:30:51.160Z,42.30
2018-05-02T10:33:18.603Z,43.30
2018-05-02T10:35:46.843Z,42.40
2018-05-02T10:38:14.289Z,42.40
2018-05-02T10:40:42.737Z,42.60
2018-05-02T10:43:10.262Z,43.00
2018-05-02T10:45:38.396Z,43.00
2018-05-02T10:48:05.836Z,43.00
2018-05-02T10:50:33.297Z,43.90
2018-05-02T10:53:00.754Z,44.10
2018-05-02T10:55:28.207Z,44.50
2018-05-02T10:57:55.658Z,44.80
2018-05-02T11:00:23.101Z,44.70
2018-05-02T11:02:51.316Z,45.60
2018-05-02T11:05:21.900Z,45.40
2018-05-02T11:07:50.117Z,45.20
2018-05-02T11:10:17.561Z,45.10
2018-05-02T11:12:45.012Z,44.90
2018-05-02T11:15:12.457Z,44.90
2018-05-02T11:17:39.940Z,45.70
2018-05-02T11:20:07.403Z,45.10
2018-05-02T11:22:34.855Z,46.40
2018-05-02T11:25:02.300Z,45.60
2018-05-02T11:27:29.745Z,45.80
2018-05-02T11:29:57.184Z,44.90
2018-05-02T11:32:25.399Z,44.40
2018-05-02T11:34:52.849Z,44.30
2018-05-02T11:37:20.311Z,45.20
2018-05-02T11:39:47.754Z,46.00
2018-05-02T11:42:15.215Z,45.10
2018-05-02T11:44:42.670Z,44.90
2018-05-02T11:47:10.124Z,44.80
2018-05-02T11:49:37.559Z,44.40
2018-05-02T11:52:05.016Z,45.20
2018-05-02T11:54:33.226Z,44.80
2018-05-02T11:57:00.684Z,44.80
2018-05-02T11:59:28.125Z,43.60
2018-05-02T12:01:55.584Z,42.00
2018-05-02T12:04:23.356Z,38.80
2018-05-02T12:06:50.808Z,36.60
2018-05-02T12:09:18.247Z,36.20
2018-05-02T12:11:45.708Z,35.30
2018-05-02T12:14:13.147Z,31.90
2018-05-02T12:16:41.372Z,33.30
2018-05-02T12:19:08.808Z,33.30
2018-05-02T12:21:36.265Z,31.00
2018-05-02T12:24:03.720Z,32.20
2018-05-02T12:26:31.175Z,31.60
2018-05-02T12:28:58.623Z,34.10
2018-05-02T12:31:26.085Z,35.10
2018-05-02T12:33:53.530Z,35.30
2018-05-02T12:36:20.968Z,37.50
2018-05-02T12:38:49.192Z,37.20
2018-05-02T12:41:16.632Z,37.20
2018-05-02T12:43:44.095Z,36.80
2018-05-02T12:46:11.528Z,37.50
2018-05-02T12:48:38.988Z,40.00
2018-05-02T12:51:09.943Z,38.90
2018-05-02T12:53:37.404Z,40.30
2018-05-02T12:56:04.948Z,38.90
2018-05-02T12:58:32.299Z,39.30
2018-05-02T13:00:59.756Z,39.90
2018-05-02T13:03:27.207Z,37.30
2018-05-02T13:05:54.656Z,36.00
2018-05-02T13:08:22.876Z,36.10
2018-05-02T13:10:50.320Z,36.00
2018-05-02T13:13:17.773Z,37.50
2018-05-02T13:15:45.297Z,38.70
2018-05-02T13:18:12.683Z,38.90
2018-05-02T13:20:40.141Z,39.20
2018-05-02T13:23:07.599Z,40.00
2018-05-02T13:25:35.045Z,40.00
2018-05-02T13:28:02.495Z,39.60
2018-05-02T13:30:31.848Z,40.00
2018-05-02T13:32:59.307Z,40.90
2018-05-02T13:35:26.764Z,39.50
2018-05-02T13:37:54.213Z,40.70
2018-05-02T13:40:21.663Z,39.80
2018-05-02T13:42:49.115Z,41.70
2018-05-02T13:45:16.560Z,41.70
2018-05-02T13:47:44.012Z,42.20
2018-05-02T13:50:11.469Z,42.40
2018-05-02T13:52:38.910Z,42.40
2018-05-02T13:55:06.359Z,41.70
2018-05-02T13:57:33.836Z,41.90
2018-05-02T14:00:01.269Z,43.10
2018-05-02T14:02:29.491Z,42.80
2018-05-02T14:05:01.253Z,42.70
2018-05-02T14:07:28.715Z,42.80
2018-05-02T14:09:56.172Z,42.60
2018-05-02T14:12:23.661Z,42.40
2018-05-02T14:14:51.873Z,43.70
2018-05-02T14:17:19.329Z,43.60
2018-05-02T14:19:46.804Z,44.00
2018-05-02T14:22:14.317Z,42.40
2018-05-02T14:24:42.534Z,42.20
2018-05-02T14:27:10.093Z,42.10
2018-05-02T14:29:37.550Z,42.30
2018-05-02T14:32:05.020Z,43.10
2018-05-02T14:34:32.480Z,43.00
2018-05-02T14:36:59.936Z,43.80
2018-05-02T14:39:27.462Z,43.40
2018-05-02T14:41:54.904Z,43.30
2018-05-02T14:44:22.359Z,43.40
2018-05-02T14:46:49.812Z,43.90
2018-05-02T14:49:18.047Z,42.90
2018-05-02T14:51:45.502Z,42.90
2018-05-02T14:54:12.953Z,42.20
2018-05-02T14:56:40.407Z,42.50
2018-05-02T14:59:07.888Z,41.70
2018-05-02T15:01:35.367Z,43.30
2018-05-02T15:04:02.883Z,42.90
2018-05-02T15:06:31.150Z,43.30
2018-05-02T15:08:58.624Z,42.70
2018-05-02T15:11:26.099Z,43.30
2018-05-02T15:13:53.593Z,44.50
2018-05-02T15:16:21.133Z,45.50
2018-05-02T15:18:49.410Z,45.20
2018-05-02T15:21:17.629Z,44.80
2018-05-02T15:23:45.093Z,44.80
2018-05-02T15:26:12.560Z,46.20
2018-05-02T15:28:40.021Z,46.00
2018-05-02T15:31:12.052Z,46.20
2018-05-02T15:33:39.524Z,47.00
2018-05-02T15:36:06.994Z,47.10
2018-05-02T15:38:34.464Z,46.60
2018-05-02T15:41:01.936Z,47.30
2018-05-02T15:43:29.407Z,47.70
2018-05-02T15:46:03.691Z,48.00
2018-05-02T15:48:31.159Z,48.00
2018-05-02T15:50:58.609Z,47.90
2018-05-02T15:53:26.100Z,48.70
2018-05-02T15:55:54.315Z,49.30
2018-05-02T15:58:22.064Z,49.30
2018-05-02T16:00:49.501Z,49.20
2018-05-02T16:03:16.958Z,49.30
2018-05-02T16:05:44.416Z,49.70
2018-05-02T16:08:12.639Z,51.40
2018-05-02T16:10:40.096Z,51.40
2018-05-02T16:13:07.577Z,50.70
2018-05-02T16:15:35.032Z,50.60
2018-05-02T16:18:02.493Z,51.20
2018-05-02T16:20:29.949Z,50.90
2018-05-02T16:22:57.407Z,51.20
2018-05-02T16:25:24.867Z,51.40
2018-05-02T16:27:58.780Z,51.80
2018-05-02T16:30:26.228Z,51.80
2018-05-02T16:32:53.739Z,52.20
2018-05-02T16:35:21.217Z,52.10
2018-05-02T16:37:48.705Z,52.20
2018-05-02T16:40:16.937Z,53.00
2018-05-02T16:42:44.448Z,52.60
2018-05-02T16:45:13.306Z,52.30
2018-05-02T16:47:40.907Z,52.30
2018-05-02T16:50:09.144Z,52.60
2018-05-02T16:52:36.708Z,52.60
2018-05-02T16:55:04.170Z,52.10
2018-05-02T16:57:31.722Z,51.70
2018-05-02T16:59:59.869Z,51.80
2018-05-02T17:02:33.141Z,51.70
2018-05-02T17:05:00.707Z,51.00
2018-05-02T17:07:28.147Z,51.40
2018-05-02T17:09:55.615Z,50.90
2018-05-02T17:12:23.071Z,50.70
2018-05-02T17:14:50.533Z,50.90
2018-05-02T17:17:17.972Z,50.70
2018-05-02T17:19:45.434Z,51.00
2018-05-02T17:22:12.948Z,50.80
2018-05-02T17:24:40.379Z,50.90
2018-05-02T17:27:07.839Z,51.20
2018-05-02T17:29:35.302Z,50.50
2018-05-02T17:32:03.071Z,50.80
2018-05-02T17:34:30.553Z,51.10
2018-05-02T17:36:58.776Z,51.00
2018-05-02T17:39:27.038Z,51.70
2018-05-02T17:41:54.475Z,51.60
2018-05-02T17:44:22.708Z,51.90
2018-05-02T17:46:55.940Z,51.90
2018-05-02T17:49:24.185Z,52.00
2018-05-02T17:51:51.648Z,52.00
2018-05-02T17:54:19.112Z,52.00
2018-05-02T17:56:46.568Z,52.70
2018-05-02T17:59:14.028Z,53.10
2018-05-02T18:01:41.701Z,53.60
2018-05-02T18:04:12.279Z,53.40
2018-05-02T18:06:41.507Z,54.20
2018-05-02T18:09:08.982Z,54.10
2018-05-02T18:11:36.420Z,54.60
2018-05-02T18:14:03.922Z,54.40
2018-05-02T18:16:31.366Z,54.40
2018-05-02T18:18:59.632Z,54.80
2018-05-02T18:21:27.892Z,55.10
2018-05-02T18:23:55.367Z,55.10
2018-05-02T18:26:30.180Z,55.70
2018-05-02T18:28:57.638Z,55.60
2018-05-02T18:31:25.088Z,56.00
2018-05-02T18:33:52.573Z,56.50
2018-05-02T18:36:20.825Z,56.80
2018-05-02T18:38:48.264Z,56.60
2018-05-02T18:41:15.716Z,56.80
2018-05-02T18:43:43.174Z,57.40
2018-05-02T18:46:10.631Z,57.30
2018-05-02T18:48:38.101Z,57.40
2018-05-02T18:51:05.556Z,57.80
2018-05-02T18:53:33.029Z,57.90
2018-05-02T18:56:00.496Z,58.10
2018-05-02T18:58:28.764Z,58.40
2018-05-02T19:00:56.175Z,58.40
2018-05-02T19:03:23.637Z,59.90
2018-05-02T19:05:51.080Z,59.60
2018-05-02T19:08:18.537Z,61.00
2018-05-02T19:10:46.032Z,60.00
2018-05-02T19:13:13.495Z,61.00
2018-05-02T19:15:40.965Z,61.10
2018-05-02T19:18:14.174Z,60.90
2018-05-02T19:20:41.664Z,62.20
2018-05-02T19:23:09.116Z,63.00
2018-05-02T19:25:43.067Z,63.10
2018-05-02T19:28:10.628Z,63.00
2018-05-02T19:30:38.099Z,63.60
2018-05-02T19:33:11.256Z,64.50
2018-05-02T19:35:38.742Z,64.60
2018-05-02T19:38:06.209Z,64.50
2018-05-02T19:40:40.122Z,65.60
2018-05-02T19:43:13.981Z,64.70
2018-05-02T19:45:41.477Z,64.50
2018-05-02T19:48:08.934Z,65.20
2018-05-02T19:50:37.160Z,65.20
2018-05-02T19:53:04.685Z,65.10
2018-05-02T19:55:32.956Z,65.00
2018-05-02T19:58:01.198Z,65.80
2018-05-02T20:00:34.256Z,65.60
2018-05-02T20:03:01.708Z,65.00
2018-05-02T20:05:29.175Z,65.00
2018-05-02T20:07:56.636Z,64.50
2018-05-02T20:10:29.839Z,64.30
2018-05-02T20:13:03.002Z,63.90
2018-05-02T20:15:30.442Z,63.80
2018-05-02T20:17:57.884Z,63.60
2018-05-02T20:20:26.111Z,64.20
2018-05-02T20:22:53.604Z,64.10
2018-05-02T20:25:21.072Z,63.40
2018-05-02T20:27:48.487Z,63.20
2018-05-02T20:30:15.945Z,64.10
2018-05-02T20:32:43.390Z,63.40
2018-05-02T20:35:10.851Z,64.20
2018-05-02T20:37:38.296Z,64.00
2018-05-02T20:40:05.735Z,64.30
2018-05-02T20:42:33.184Z,63.60
2018-05-02T20:45:00.621Z,63.30
2018-05-02T20:47:28.839Z,63.30
2018-05-02T20:49:56.272Z,63.30
2018-05-02T20:52:23.714Z,64.10
2018-05-02T20:54:52.018Z,63.60
2018-05-02T20:57:19.372Z,63.60
2018-05-02T20:59:46.823Z,64.20
2018-05-02T21:02:14.270Z,64.20
2018-05-02T21:04:41.707Z,64.20
2018-05-02T21:07:09.932Z,64.80
2018-05-02T21:09:37.384Z,64.80
2018-05-02T21:12:04.827Z,64.70
2018-05-02T21:14:32.313Z,65.20
2018-05-02T21:16:59.718Z,65.30
2018-05-02T21:19:27.927Z,66.00
2018-05-02T21:21:55.436Z,65.90
2018-05-02T21:24:22.818Z,66.50
2018-05-02T21:26:50.271Z,67.00
2018-05-02T21:29:18.475Z,67.70
2018-05-02T21:31:45.922Z,67.70
2018-05-02T21:34:13.362Z,67.70
2018-05-02T21:36:40.819Z,68.40
2018-05-02T21:39:08.250Z,68.80
2018-05-02T21:41:36.470Z,69.30
2018-05-02T21:44:03.907Z,69.30
2018-05-02T21:46:31.356Z,69.30
2018-05-02T21:48:59.568Z,69.70
2018-05-02T21:51:27.019Z,69.70
2018-05-02T21:53:54.464Z,69.90
2018-05-02T21:56:21.909Z,70.30
2018-05-02T21:58:49.342Z,70.20
2018-05-02T22:01:17.556Z,70.60
2018-05-02T22:03:44.995Z,70.60
2018-05-02T22:06:12.448Z,70.90
2018-05-02T22:08:40.656Z,71.40
2018-05-02T22:11:08.104Z,71.40
2018-05-02T22:13:35.542Z,71.50
2018-05-02T22:16:02.990Z,71.50
2018-05-02T22:18:30.430Z,71.40
2018-05-02T22:20:58.647Z,71.80
2018-05-02T22:23:26.083Z,71.70
2018-05-02T22:25:53.530Z,71.00
2018-05-02T22:28:21.735Z,70.60
2018-05-02T22:30:49.200Z,70.60
2018-05-02T22:33:17.408Z,71.40
2018-05-02T22:35:44.851Z,71.30
2018-05-02T22:38:12.303Z,70.70
2018-05-02T22:40:39.742Z,70.90
2018-05-02T22:43:07.192Z,70.80
2018-05-02T22:45:35.402Z,70.80
2018-05-02T22:48:02.856Z,70.80
2018-05-02T22:50:30.301Z,70.80
2018-05-02T22:52:57.751Z,70.80
2018-05-02T22:55:25.195Z,70.40
2018-05-02T22:57:52.648Z,71.40
2018-05-02T23:00:20.087Z,71.20
2018-05-02T23:02:47.535Z,70.90
2018-05-02T23:05:14.986Z,71.00
2018-05-02T23:07:43.200Z,70.70
2018-05-02T23:10:11.404Z,70.90
2018-05-02T23:12:38.849Z,70.80
2018-05-02T23:15:06.287Z,71.40
2018-05-02T23:17:34.499Z,71.10
2018-05-02T23:20:01.945Z,71.10
2018-05-02T23:22:29.390Z,70.70
2018-05-02T23:24:56.834Z,70.70
2018-05-02T23:27:24.282Z,70.30
2018-05-02T23:29:51.727Z,70.10
2018-05-02T23:32:19.174Z,70.80
2018-05-02T23:34:46.615Z,70.30
2018-05-02T23:37:14.840Z,70.40
2018-05-02T23:39:43.142Z,70.30
2018-05-02T23:42:10.595Z,70.40
2018-05-02T23:44:38.035Z,70.20
2018-05-02T23:47:05.478Z,70.20
2018-05-02T23:49:32.930Z,70.10
2018-05-02T23:52:00.371Z,70.10
2018-05-02T23:54:27.820Z,70.30
2018-05-02T23:56:55.266Z,71.40
2018-05-02T23:59:23.477Z,70.50
